Mekhanik Antonov — UBBH9 — position and weather

sailwx.info

Track history (hours):
 
Tides and Currents Weather Stations Pressure Air Temp Water Temp Dewpoint Dewpoint Depression Visibility Wind Speed Wind Dir Waves Ship Positions

Mekhanik Antonov

Last reported at 2018-Feb-23 21:29 UTC. Time now 2018-Feb-23 22:28 UTC.
Position N 45°29' E 036°46'.

Length 141 m; draft 2.8 m.

Type: Tanker. MMSI: 273351320.

Date/timePositionNaut miles runAvg speedWind from/ knotsBaromVisibWave heightAir tempDewpointWater temp
2018-Feb-23 21:29N 45°29' E 036°46'0 0.0
2018-Feb-23 21:00N 45°29' E 036°46'0 0.0
2018-Feb-23 20:25N 45°29' E 036°46'0 0.0
2018-Feb-23 19:59N 45°29' E 036°46'0 0.0
2018-Feb-23 19:30N 45°29' E 036°46'0 0.0
2018-Feb-23 17:50N 45°29' E 036°46'0 0.0
2018-Feb-23 17:11N 45°29' E 036°46'0 0.0
2018-Feb-23 16:59N 45°29' E 036°46'1 2.5
2018-Feb-23 16:30N 45°28' E 036°45'4 7.8
2018-Feb-23 16:00N 45°25' E 036°42'4 7.3
2018-Feb-23 15:30N 45°21' E 036°40'3 6.1
2018-Feb-23 15:00N 45°20' E 036°36'3 7.0
2018-Feb-23 14:30N 45°19' E 036°32'3 6.7
2018-Feb-23 14:00N 45°16' E 036°29'3 5.4
2018-Feb-23 13:30N 45°14' E 036°30'1 1.6
2018-Feb-23 12:53N 45°13' E 036°31'0 0.0
2018-Feb-23 12:27N 45°13' E 036°31'0 0.0
2018-Feb-23 11:57N 45°13' E 036°31'0 0.0
2018-Feb-23 11:28N 45°13' E 036°31'0 0.0
2018-Feb-23 10:53N 45°13' E 036°31'0 0.1
2018-Feb-23 10:28N 45°13' E 036°31'0 0.0
2018-Feb-23 09:57N 45°13' E 036°31'0 0.0
2018-Feb-23 09:25N 45°13' E 036°31'0 0.0
2018-Feb-23 08:59N 45°13' E 036°31'0 0.0
2018-Feb-23 08:29N 45°13' E 036°31'0 0.0
2018-Feb-23 07:57N 45°13' E 036°31'0 0.0
2018-Feb-23 07:29N 45°13' E 036°31'0 0.0
2018-Feb-23 06:54N 45°13' E 036°31'0 0.0
2018-Feb-23 06:25N 45°13' E 036°31'0 0.0
2018-Feb-23 06:00N 45°13' E 036°31'0 0.0
2018-Feb-23 05:27N 45°13' E 036°31'0 0.0
2018-Feb-23 04:58N 45°13' E 036°31'  
2018-Feb-14 13:51N 45°12' E 036°28'3 8.4
2018-Feb-14 13:31N 45°15' E 036°28'4 7.1
2018-Feb-14 13:00N 45°18' E 036°30'3 5.9
2018-Feb-14 12:30N 45°20' E 036°34'4 7.9
2018-Feb-14 12:00N 45°21' E 036°39'3 7.0
2018-Feb-14 11:30N 45°25' E 036°41'2 5.0
2018-Feb-14 11:00N 45°27' E 036°40'2 4.0
2018-Feb-14 10:30N 45°29' E 036°39'1 1.3
2018-Feb-14 09:58N 45°29' E 036°38'0 0.0
2018-Feb-14 09:22N 45°29' E 036°38'0 0.0
2018-Feb-14 09:00N 45°29' E 036°38'0 0.0
2018-Feb-14 08:28N 45°29' E 036°38'0 0.1
2018-Feb-14 08:00N 45°29' E 036°38'3 6.1
2018-Feb-14 07:30N 45°30' E 036°42'  
Track history (hours):
 
Tides and Currents Weather Stations Pressure Air Temp Water Temp Dewpoint Dewpoint Depression Visibility Wind Speed Wind Dir Waves Ship Positions

Mekhanik Antonov

Last reported at 2018-Feb-23 21:29 UTC. Time now 2018-Feb-23 22:28 UTC.
Position N 45°29' E 036°46'.

Length 141 m; draft 2.8 m.

Type: Tanker. MMSI: 273351320.

Date/timePositionNaut miles runAvg speedWind from/ knotsBaromVisibWave heightAir tempDewpointWater temp
2018-Feb-23 21:29N 45°29' E 036°46'0 0.0
2018-Feb-23 21:00N 45°29' E 036°46'0 0.0
2018-Feb-23 20:25N 45°29' E 036°46'0 0.0
2018-Feb-23 19:59N 45°29' E 036°46'0 0.0
2018-Feb-23 19:30N 45°29' E 036°46'0 0.0
2018-Feb-23 17:50N 45°29' E 036°46'0 0.0
2018-Feb-23 17:11N 45°29' E 036°46'0 0.0
2018-Feb-23 16:59N 45°29' E 036°46'1 2.5
2018-Feb-23 16:30N 45°28' E 036°45'4 7.8
2018-Feb-23 16:00N 45°25' E 036°42'4 7.3
2018-Feb-23 15:30N 45°21' E 036°40'3 6.1
2018-Feb-23 15:00N 45°20' E 036°36'3 7.0
2018-Feb-23 14:30N 45°19' E 036°32'3 6.7
2018-Feb-23 14:00N 45°16' E 036°29'3 5.4
2018-Feb-23 13:30N 45°14' E 036°30'1 1.6
2018-Feb-23 12:53N 45°13' E 036°31'0 0.0
2018-Feb-23 12:27N 45°13' E 036°31'0 0.0
2018-Feb-23 11:57N 45°13' E 036°31'0 0.0
2018-Feb-23 11:28N 45°13' E 036°31'0 0.0
2018-Feb-23 10:53N 45°13' E 036°31'0 0.1
2018-Feb-23 10:28N 45°13' E 036°31'0 0.0
2018-Feb-23 09:57N 45°13' E 036°31'0 0.0
2018-Feb-23 09:25N 45°13' E 036°31'0 0.0
2018-Feb-23 08:59N 45°13' E 036°31'0 0.0
2018-Feb-23 08:29N 45°13' E 036°31'0 0.0
2018-Feb-23 07:57N 45°13' E 036°31'0 0.0
2018-Feb-23 07:29N 45°13' E 036°31'0 0.0
2018-Feb-23 06:54N 45°13' E 036°31'0 0.0
2018-Feb-23 06:25N 45°13' E 036°31'0 0.0
2018-Feb-23 06:00N 45°13' E 036°31'0 0.0
2018-Feb-23 05:27N 45°13' E 036°31'0 0.0
2018-Feb-23 04:58N 45°13' E 036°31'  
2018-Feb-14 13:51N 45°12' E 036°28'3 8.4
2018-Feb-14 13:31N 45°15' E 036°28'4 7.1
2018-Feb-14 13:00N 45°18' E 036°30'3 5.9
2018-Feb-14 12:30N 45°20' E 036°34'4 7.9
2018-Feb-14 12:00N 45°21' E 036°39'3 7.0
2018-Feb-14 11:30N 45°25' E 036°41'2 5.0
2018-Feb-14 11:00N 45°27' E 036°40'2 4.0
2018-Feb-14 10:30N 45°29' E 036°39'1 1.3
2018-Feb-14 09:58N 45°29' E 036°38'0 0.0
2018-Feb-14 09:22N 45°29' E 036°38'0 0.0
2018-Feb-14 09:00N 45°29' E 036°38'0 0.0
2018-Feb-14 08:28N 45°29' E 036°38'0 0.1
2018-Feb-14 08:00N 45°29' E 036°38'3 6.1
2018-Feb-14 07:30N 45°30' E 036°42'  

Dump ship's entire track history